Aviation Digital Data Service (ADDS)

Output produced by METARs form (0020 UTC 01 November 2014)
found at http://www.aviationweather.gov/adds/metars/
 
KPHL 312333Z 0100/0206 03010KT P6SM SCT030 OVC050 
     FM010300 03013KT P6SM -RA OVC025 
     FM011000 03013G21KT 5SM -RA OVC015 
     FM011700 01015G25KT 6SM -RA OVC025 
     FM012100 36015G25KT 6SM -SHRA OVC035